CDT,Max TemperatureF,Mean TemperatureF,Min TemperatureF,Max Dew PointF,MeanDew PointF,Min DewpointF,Max Humidity, Mean Humidity, Min Humidity, Max Sea Level PressureIn, Mean Sea Level PressureIn, Min Sea Level PressureIn, Max VisibilityMiles, Mean VisibilityMiles, Min VisibilityMiles, Max Wind SpeedMPH, Mean Wind SpeedMPH, Max Gust SpeedMPH,PrecipitationIn, CloudCover, Events, WindDirDegrees
2013-4-1,44,34,26,34,21,15,92,62,32,30.34,30.26,30.11,10,9,3,18,12,25,0.01,3,Snow,2
2013-4-2,52,36,19,22,18,15,81,50,26,30.38,30.32,30.27,10,10,10,9,2,,0.00,0,,88
2013-4-3,52,40,30,25,23,20,72,50,32,30.39,30.32,30.24,10,10,5,12,5,20,0.00,0,,125
2013-4-4,66,46,25,35,29,21,88,54,28,30.25,30.15,30.05,10,10,7,13,3,16,0.00,0,,296
2013-4-5,72,54,37,38,35,30,79,49,29,30.17,30.01,29.77,10,10,10,22,9,29,0.00,0,,130
2013-4-6,73,62,52,46,41,38,64,47,32,29.79,29.69,29.63,10,10,10,20,12,32,0.00,1,,232
2013-4-7,78,58,42,56,44,36,100,64,26,29.85,29.74,29.64,10,9,3,18,6,33,0.62,3,Rain-Thunderstorm,151
2013-4-8,73,62,51,63,56,48,100,84,68,29.70,29.67,29.63,10,10,6,12,6,,0.00,7,,159
2013-4-9,75,59,39,61,52,38,93,82,62,29.95,29.70,29.59,10,9,4,31,13,38,0.09,7,Rain,356
2013-4-10,42,38,35,43,38,35,100,98,89,30.01,29.85,29.75,10,6,2,30,15,44,0.78,8,Rain-Thunderstorm,330
2013-4-11,39,36,32,34,28,26,96,77,65,29.82,29.74,29.69,10,10,9,21,15,25,0.00,8,,278
2013-4-12,50,40,33,30,28,25,78,65,48,30.04,29.90,29.75,10,10,10,20,13,24,0.00,7,,304
2013-4-13,61,44,28,39,32,24,86,65,44,30.07,29.91,29.65,10,10,10,20,7,25,0.00,3,,160
2013-4-14,73,58,46,52,41,28,74,52,30,29.70,29.51,29.40,10,10,10,28,14,41,0.00,2,,214
2013-4-15,50,44,39,30,26,22,62,49,35,30.06,29.90,29.73,10,10,10,14,9,21,0.00,6,,325
2013-4-16,48,42,36,33,29,26,76,59,44,30.21,30.14,30.04,10,10,10,17,11,22,0.00,7,Rain,47
2013-4-17,48,44,41,48,43,33,100,95,61,30.13,29.84,29.65,10,6,2,20,11,39,1.71,8,Rain-Thunderstorm,35
2013-4-18,39,36,34,40,33,25,100,86,67,29.95,29.76,29.65,10,8,2,25,16,36,0.19,8,Rain-Snow-Thunderstorm,318
2013-4-19,50,40,30,27,24,21,79,59,36,30.13,29.98,29.91,10,10,10,21,16,31,0.00,3,,305
2013-4-20,53,40,26,30,26,22,85,59,35,30.27,30.19,30.14,10,10,10,17,6,22,0.00,4,,107
2013-4-21,69,55,42,43,38,30,70,53,36,30.17,30.12,30.05,10,10,10,25,12,38,0.00,4,,164
2013-4-22,66,52,37,52,44,34,100,80,43,30.14,30.03,29.94,10,8,2,20,8,28,0.47,7,Rain,293
2013-4-23,41,36,30,34,28,25,93,82,62,30.23,30.16,30.12,10,7,0,21,15,31,0.08,8,Fog-Rain-Snow,349
2013-4-24,57,40,26,36,28,22,86,61,37,30.27,30.20,30.11,10,10,10,21,9,34,0.00,2,Rain,275
2013-4-25,70,51,32,40,33,28,86,52,26,30.30,30.20,30.08,10,10,10,16,6,24,0.00,1,,203
2013-4-26,63,56,51,48,45,37,83,65,51,30.21,30.15,30.07,10,10,10,22,12,34,0.00,5,,171
2013-4-27,64,56,50,48,46,44,89,77,58,30.21,30.11,29.99,10,10,7,9,5,,0.00,5,,103
2013-4-28,79,60,42,54,48,41,100,72,37,29.98,29.87,29.72,10,8,0,18,8,25,0.00,0,Fog,178
2013-4-29,84,70,57,62,56,52,87,63,38,29.75,29.65,29.53,10,10,10,16,9,28,0.00,0,,190
2013-4-30,86,76,66,59,55,49,55,48,37,29.76,29.64,29.54,10,10,10,24,16,33,0.00,0,,187